KDVP

Slayton Municipal Airport

Slayton, Minnesota, USA
METAR KDVP 221959Z AUTO 30019G23KT 10SM CLR 17/M16 A3013 RMK AO2
Observed Flight Rules
Oct-22 @ 19:59 UTC (50 minutes ago) Visual Flight Rules
Wind Visibility Clouds
300° at 19 knots
 Gusting to 23 knots
10 miles
  • Clear skies
Temperatures Readings
Current 17°C / 63°F
Dewpoint -16°C / 3°F
Humidity 9%
Altimeter 30.13" Hg
Pressure 1020 hPa
Elevation 495
METAR KDVP 221959Z AUTO 30019G23KT 10SM CLR 17/M16 A3013 RMK AO2
Observed Flight Rules
Oct-22 @ 19:59 UTC
(50 minutes ago)
VFR
Wind Visibility
300° at 19 knots
 Gusting to 23 knots
10 miles
Clouds
  • Clear skies
Temperature Dewpoint
17°C / 63°F -16°C / 3°F
Humidity Altimeter Pressure
9% 30.13" Hg 1020 hPa